sensor_id;sensor_type;location;lat;lon;timestamp;pressure;altitude;pressure_sealevel;temperature;humidity
58239;BME280;44037;55.638;37.356;2022-12-29T00:01:32;98899.09;;;-1.07;100.00
58239;BME280;44037;55.638;37.356;2022-12-29T00:03:59;98892.19;;;-1.10;100.00
58239;BME280;44037;55.638;37.356;2022-12-29T00:06:27;98888.81;;;-1.10;100.00
58239;BME280;44037;55.638;37.356;2022-12-29T00:08:55;98889.53;;;-1.13;100.00
58239;BME280;44037;55.638;37.356;2022-12-29T00:11:24;98895.94;;;-1.21;100.00
58239;BME280;44037;55.638;37.356;2022-12-29T00:13:51;98902.44;;;-1.28;100.00
58239;BME280;44037;55.638;37.356;2022-12-29T00:16:36;98901.22;;;-1.36;100.00
58239;BME280;44037;55.638;37.356;2022-12-29T00:19:04;98899.34;;;-1.40;100.00
58239;BME280;44037;55.638;37.356;2022-12-29T00:21:31;98906.22;;;-1.37;100.00
58239;BME280;44037;55.638;37.356;2022-12-29T00:24:19;98907.03;;;-1.39;100.00
58239;BME280;44037;55.638;37.356;2022-12-29T00:27:11;98908.84;;;-1.36;100.00
58239;BME280;44037;55.638;37.356;2022-12-29T00:29:56;98911.31;;;-1.37;100.00
58239;BME280;44037;55.638;37.356;2022-12-29T00:32:41;98912.09;;;-1.39;100.00
58239;BME280;44037;55.638;37.356;2022-12-29T00:35:28;98909.44;;;-1.42;100.00
58239;BME280;44037;55.638;37.356;2022-12-29T00:37:57;98915.97;;;-1.47;100.00
58239;BME280;44037;55.638;37.356;2022-12-29T00:40:44;98915.78;;;-1.51;100.00
58239;BME280;44037;55.638;37.356;2022-12-29T00:43:28;98912.22;;;-1.55;100.00
58239;BME280;44037;55.638;37.356;2022-12-29T00:46:13;98915.63;;;-1.55;100.00
58239;BME280;44037;55.638;37.356;2022-12-29T00:48:40;98923.25;;;-1.55;100.00
58239;BME280;44037;55.638;37.356;2022-12-29T00:51:24;98927.47;;;-1.55;100.00
58239;BME280;44037;55.638;37.356;2022-12-29T00:53:51;98927.34;;;-1.58;100.00
58239;BME280;44037;55.638;37.356;2022-12-29T00:56:20;98923.69;;;-1.63;100.00
58239;BME280;44037;55.638;37.356;2022-12-29T00:58:47;98925.31;;;-1.65;100.00
58239;BME280;44037;55.638;37.356;2022-12-29T01:01:14;98926.13;;;-1.66;100.00
58239;BME280;44037;55.638;37.356;2022-12-29T01:03:41;98919.19;;;-1.69;100.00
58239;BME280;44037;55.638;37.356;2022-12-29T01:06:09;98923.44;;;-1.70;100.00
58239;BME280;44037;55.638;37.356;2022-12-29T01:08:36;98917.56;;;-1.68;100.00
58239;BME280;44037;55.638;37.356;2022-12-29T01:11:06;98916.91;;;-1.64;100.00
58239;BME280;44037;55.638;37.356;2022-12-29T01:13:34;98921.97;;;-1.64;100.00
58239;BME280;44037;55.638;37.356;2022-12-29T01:16:03;98927.84;;;-1.65;100.00
58239;BME280;44037;55.638;37.356;2022-12-29T01:18:30;98932.00;;;-1.67;100.00
58239;BME280;44037;55.638;37.356;2022-12-29T01:21:00;98916.59;;;-1.71;100.00
58239;BME280;44037;55.638;37.356;2022-12-29T01:23:28;98930.09;;;-1.72;100.00
58239;BME280;44037;55.638;37.356;2022-12-29T01:25:56;98929.31;;;-1.71;100.00
58239;BME280;44037;55.638;37.356;2022-12-29T01:28:23;98926.81;;;-1.69;100.00
58239;BME280;44037;55.638;37.356;2022-12-29T01:30:52;98925.16;;;-1.68;100.00
58239;BME280;44037;55.638;37.356;2022-12-29T01:33:19;98926.81;;;-1.69;100.00
58239;BME280;44037;55.638;37.356;2022-12-29T01:35:46;98923.28;;;-1.73;100.00
58239;BME280;44037;55.638;37.356;2022-12-29T01:38:13;98926.34;;;-1.80;100.00
58239;BME280;44037;55.638;37.356;2022-12-29T01:40:44;98926.03;;;-1.86;100.00
58239;BME280;44037;55.638;37.356;2022-12-29T01:43:12;98923.44;;;-1.88;100.00
58239;BME280;44037;55.638;37.356;2022-12-29T01:45:43;98921.63;;;-1.90;100.00
58239;BME280;44037;55.638;37.356;2022-12-29T01:48:13;98921.53;;;-1.92;100.00
58239;BME280;44037;55.638;37.356;2022-12-29T01:50:46;98923.22;;;-1.92;100.00
58239;BME280;44037;55.638;37.356;2022-12-29T01:53:18;98920.53;;;-1.95;100.00
58239;BME280;44037;55.638;37.356;2022-12-29T01:55:50;98923.66;;;-2.01;100.00
58239;BME280;44037;55.638;37.356;2022-12-29T01:58:20;98926.63;;;-2.10;100.00
58239;BME280;44037;55.638;37.356;2022-12-29T02:00:49;98926.34;;;-2.16;100.00
58239;BME280;44037;55.638;37.356;2022-12-29T02:03:19;98926.19;;;-2.19;100.00
58239;BME280;44037;55.638;37.356;2022-12-29T02:05:51;98933.78;;;-2.19;100.00
58239;BME280;44037;55.638;37.356;2022-12-29T02:08:22;98932.13;;;-2.19;100.00
58239;BME280;44037;55.638;37.356;2022-12-29T02:10:51;98931.31;;;-2.18;100.00
58239;BME280;44037;55.638;37.356;2022-12-29T02:13:19;98936.63;;;-2.13;100.00
58239;BME280;44037;55.638;37.356;2022-12-29T02:16:18;98931.53;;;-2.13;100.00
58239;BME280;44037;55.638;37.356;2022-12-29T02:18:54;98948.59;;;-2.10;100.00
58239;BME280;44037;55.638;37.356;2022-12-29T02:21:40;98950.25;;;-2.11;100.00
58239;BME280;44037;55.638;37.356;2022-12-29T02:24:37;98945.97;;;-2.12;100.00
58239;BME280;44037;55.638;37.356;2022-12-29T02:27:37;98942.47;;;-2.14;100.00
58239;BME280;44037;55.638;37.356;2022-12-29T02:36:07;98950.38;;;-2.26;100.00
58239;BME280;44037;55.638;37.356;2022-12-29T02:38:44;98950.31;;;-2.27;100.00
58239;BME280;44037;55.638;37.356;2022-12-29T02:41:18;98948.31;;;-2.33;100.00
58239;BME280;44037;55.638;37.356;2022-12-29T02:43:50;98954.13;;;-2.36;100.00
58239;BME280;44037;55.638;37.356;2022-12-29T02:46:22;98960.56;;;-2.42;100.00
58239;BME280;44037;55.638;37.356;2022-12-29T02:49:03;98953.47;;;-2.50;100.00
58239;BME280;44037;55.638;37.356;2022-12-29T02:51:37;98956.41;;;-2.58;100.00
58239;BME280;44037;55.638;37.356;2022-12-29T02:54:06;98960.28;;;-2.65;100.00
58239;BME280;44037;55.638;37.356;2022-12-29T02:56:51;98964.25;;;-2.70;100.00
58239;BME280;44037;55.638;37.356;2022-12-29T02:59:19;98959.81;;;-2.74;100.00
58239;BME280;44037;55.638;37.356;2022-12-29T03:02:00;98961.25;;;-2.80;100.00
58239;BME280;44037;55.638;37.356;2022-12-29T03:05:06;98957.06;;;-2.79;100.00
58239;BME280;44037;55.638;37.356;2022-12-29T03:07:45;98952.84;;;-2.79;100.00
58239;BME280;44037;55.638;37.356;2022-12-29T03:10:25;98959.03;;;-2.73;100.00
58239;BME280;44037;55.638;37.356;2022-12-29T03:13:02;98959.03;;;-2.73;100.00
58239;BME280;44037;55.638;37.356;2022-12-29T03:15:53;98962.44;;;-2.73;100.00
58239;BME280;44037;55.638;37.356;2022-12-29T03:18:41;98961.41;;;-2.76;100.00
58239;BME280;44037;55.638;37.356;2022-12-29T03:21:17;98973.06;;;-2.80;100.00
58239;BME280;44037;55.638;37.356;2022-12-29T03:23:49;98973.84;;;-2.81;100.00
58239;BME280;44037;55.638;37.356;2022-12-29T03:26:17;98968.78;;;-2.81;100.00
58239;BME280;44037;55.638;37.356;2022-12-29T03:28:48;98978.28;;;-2.77;100.00
58239;BME280;44037;55.638;37.356;2022-12-29T03:31:18;98977.56;;;-2.74;100.00
58239;BME280;44037;55.638;37.356;2022-12-29T03:33:46;98977.81;;;-2.70;100.00
58239;BME280;44037;55.638;37.356;2022-12-29T03:36:18;98978.94;;;-2.65;100.00
58239;BME280;44037;55.638;37.356;2022-12-29T03:38:51;98984.22;;;-2.60;100.00
58239;BME280;44037;55.638;37.356;2022-12-29T03:41:26;98983.56;;;-2.56;100.00
58239;BME280;44037;55.638;37.356;2022-12-29T03:43:55;98988.75;;;-2.54;100.00
58239;BME280;44037;55.638;37.356;2022-12-29T03:46:22;98987.16;;;-2.52;100.00
58239;BME280;44037;55.638;37.356;2022-12-29T03:48:49;98986.44;;;-2.50;100.00
58239;BME280;44037;55.638;37.356;2022-12-29T03:51:18;99000.88;;;-2.49;100.00
58239;BME280;44037;55.638;37.356;2022-12-29T03:53:45;98995.00;;;-2.48;100.00
58239;BME280;44037;55.638;37.356;2022-12-29T03:56:12;98998.56;;;-2.44;100.00
58239;BME280;44037;55.638;37.356;2022-12-29T03:58:39;99003.88;;;-2.39;100.00
58239;BME280;44037;55.638;37.356;2022-12-29T04:01:06;99008.09;;;-2.40;100.00
58239;BME280;44037;55.638;37.356;2022-12-29T04:03:33;99010.63;;;-2.40;100.00
58239;BME280;44037;55.638;37.356;2022-12-29T04:06:00;99018.22;;;-2.40;100.00
58239;BME280;44037;55.638;37.356;2022-12-29T04:08:29;99018.28;;;-2.38;100.00
58239;BME280;44037;55.638;37.356;2022-12-29T04:10:56;99008.22;;;-2.37;100.00
58239;BME280;44037;55.638;37.356;2022-12-29T04:13:23;99013.38;;;-2.35;100.00
58239;BME280;44037;55.638;37.356;2022-12-29T04:15:50;99014.31;;;-2.33;100.00
58239;BME280;44037;55.638;37.356;2022-12-29T04:18:17;99015.19;;;-2.33;100.00
58239;BME280;44037;55.638;37.356;2022-12-29T04:20:44;99006.69;;;-2.33;100.00
58239;BME280;44037;55.638;37.356;2022-12-29T04:23:31;99001.72;;;-2.32;100.00
58239;BME280;44037;55.638;37.356;2022-12-29T04:25:58;99012.09;;;-2.27;100.00
58239;BME280;44037;55.638;37.356;2022-12-29T04:28:26;99010.72;;;-2.20;100.00
58239;BME280;44037;55.638;37.356;2022-12-29T04:30:54;99012.53;;;-2.18;100.00
58239;BME280;44037;55.638;37.356;2022-12-29T04:33:21;99012.47;;;-2.19;100.00
58239;BME280;44037;55.638;37.356;2022-12-29T04:35:49;99016.66;;;-2.20;100.00
58239;BME280;44037;55.638;37.356;2022-12-29T04:38:16;99013.44;;;-2.17;100.00
58239;BME280;44037;55.638;37.356;2022-12-29T04:40:44;99010.91;;;-2.17;100.00
58239;BME280;44037;55.638;37.356;2022-12-29T04:43:12;99019.16;;;-2.21;100.00
58239;BME280;44037;55.638;37.356;2022-12-29T04:45:43;99030.88;;;-2.23;100.00
58239;BME280;44037;55.638;37.356;2022-12-29T04:48:10;99030.09;;;-2.22;100.00
58239;BME280;44037;55.638;37.356;2022-12-29T04:50:37;99027.56;;;-2.22;100.00
58239;BME280;44037;55.638;37.356;2022-12-29T04:53:04;99027.38;;;-2.25;100.00
58239;BME280;44037;55.638;37.356;2022-12-29T04:55:32;99033.97;;;-2.29;100.00
58239;BME280;44037;55.638;37.356;2022-12-29T04:58:00;99042.16;;;-2.35;100.00
58239;BME280;44037;55.638;37.356;2022-12-29T05:00:27;99033.47;;;-2.40;100.00
58239;BME280;44037;55.638;37.356;2022-12-29T05:02:54;99039.22;;;-2.42;100.00
58239;BME280;44037;55.638;37.356;2022-12-29T05:05:21;99039.94;;;-2.45;100.00
58239;BME280;44037;55.638;37.356;2022-12-29T05:07:48;99045.03;;;-2.45;100.00
58239;BME280;44037;55.638;37.356;2022-12-29T05:10:16;99045.19;;;-2.42;100.00
58239;BME280;44037;55.638;37.356;2022-12-29T05:12:43;99050.56;;;-2.36;100.00
58239;BME280;44037;55.638;37.356;2022-12-29T05:15:12;99046.59;;;-2.30;100.00
58239;BME280;44037;55.638;37.356;2022-12-29T05:17:39;99050.31;;;-2.24;100.00
58239;BME280;44037;55.638;37.356;2022-12-29T05:20:07;99053.88;;;-2.20;100.00
58239;BME280;44037;55.638;37.356;2022-12-29T05:22:34;99053.16;;;-2.18;100.00
58239;BME280;44037;55.638;37.356;2022-12-29T05:25:01;99059.03;;;-2.19;100.00
58239;BME280;44037;55.638;37.356;2022-12-29T05:27:29;99060.53;;;-2.22;100.00
58239;BME280;44037;55.638;37.356;2022-12-29T05:29:56;99062.13;;;-2.24;100.00
58239;BME280;44037;55.638;37.356;2022-12-29T05:32:24;99061.09;;;-2.28;100.00
58239;BME280;44037;55.638;37.356;2022-12-29T05:34:51;99072.84;;;-2.30;100.00
58239;BME280;44037;55.638;37.356;2022-12-29T05:37:18;99067.53;;;-2.35;100.00
58239;BME280;44037;55.638;37.356;2022-12-29T05:39:45;99071.59;;;-2.38;100.00
58239;BME280;44037;55.638;37.356;2022-12-29T05:42:12;99067.84;;;-2.45;100.00
58239;BME280;44037;55.638;37.356;2022-12-29T05:44:39;99066.97;;;-2.45;100.00
58239;BME280;44037;55.638;37.356;2022-12-29T05:47:06;99064.44;;;-2.45;100.00
58239;BME280;44037;55.638;37.356;2022-12-29T05:49:35;99065.94;;;-2.49;100.00
58239;BME280;44037;55.638;37.356;2022-12-29T05:52:02;99068.47;;;-2.49;100.00
58239;BME280;44037;55.638;37.356;2022-12-29T05:54:29;99065.16;;;-2.48;100.00
58239;BME280;44037;55.638;37.356;2022-12-29T05:56:56;99065.94;;;-2.49;100.00
58239;BME280;44037;55.638;37.356;2022-12-29T05:59:23;99064.13;;;-2.52;100.00
58239;BME280;44037;55.638;37.356;2022-12-29T06:01:50;99063.91;;;-2.56;100.00
58239;BME280;44037;55.638;37.356;2022-12-29T06:04:17;99068.00;;;-2.58;100.00
58239;BME280;44037;55.638;37.356;2022-12-29T06:06:45;99065.41;;;-2.60;100.00
58239;BME280;44037;55.638;37.356;2022-12-29T06:09:13;99062.94;;;-2.58;100.00
58239;BME280;44037;55.638;37.356;2022-12-29T06:11:40;99073.25;;;-2.55;100.00
58239;BME280;44037;55.638;37.356;2022-12-29T06:14:07;99074.28;;;-2.52;100.00
58239;BME280;44037;55.638;37.356;2022-12-29T06:16:34;99079.28;;;-2.53;100.00
58239;BME280;44037;55.638;37.356;2022-12-29T06:19:01;99077.53;;;-2.54;100.00
58239;BME280;44037;55.638;37.356;2022-12-29T06:21:28;99074.28;;;-2.52;100.00
58239;BME280;44037;55.638;37.356;2022-12-29T06:23:57;99081.09;;;-2.51;100.00
58239;BME280;44037;55.638;37.356;2022-12-29T06:26:24;99085.03;;;-2.56;100.00
58239;BME280;44037;55.638;37.356;2022-12-29T06:28:51;99095.13;;;-2.57;100.00
58239;BME280;44037;55.638;37.356;2022-12-29T06:31:18;99084.44;;;-2.52;100.00
58239;BME280;44037;55.638;37.356;2022-12-29T06:33:45;99083.31;;;-2.40;100.00
58239;BME280;44037;55.638;37.356;2022-12-29T06:36:12;99089.66;;;-2.32;100.00
58239;BME280;44037;55.638;37.356;2022-12-29T06:38:39;99084.34;;;-2.20;100.00
58239;BME280;44037;55.638;37.356;2022-12-29T06:41:07;99085.75;;;-2.09;100.00
58239;BME280;44037;55.638;37.356;2022-12-29T06:43:34;99076.22;;;-1.96;100.00
58239;BME280;44037;55.638;37.356;2022-12-29T06:46:03;99075.88;;;-1.86;100.00
58239;BME280;44037;55.638;37.356;2022-12-29T06:48:31;99074.59;;;-1.78;100.00
58239;BME280;44037;55.638;37.356;2022-12-29T06:50:58;99077.59;;;-1.68;100.00
58239;BME280;44037;55.638;37.356;2022-12-29T06:53:25;99084.84;;;-1.58;100.00
58239;BME280;44037;55.638;37.356;2022-12-29T06:55:52;99082.53;;;-1.53;100.00
58239;BME280;44037;55.638;37.356;2022-12-29T06:58:20;99084.13;;;-1.56;100.00
58239;BME280;44037;55.638;37.356;2022-12-29T07:00:47;99083.28;;;-1.56;100.00
58239;BME280;44037;55.638;37.356;2022-12-29T07:03:15;99087.47;;;-1.57;99.56
58239;BME280;44037;55.638;37.356;2022-12-29T07:05:42;99085.97;;;-1.53;99.17
58239;BME280;44037;55.638;37.356;2022-12-29T07:08:09;99092.28;;;-1.45;99.14
58239;BME280;44037;55.638;37.356;2022-12-29T07:10:36;99090.16;;;-1.35;99.03
58239;BME280;44037;55.638;37.356;2022-12-29T07:13:03;99078.72;;;-1.27;98.71
58239;BME280;44037;55.638;37.356;2022-12-29T07:15:31;99090.75;;;-1.23;98.34
58239;BME280;44037;55.638;37.356;2022-12-29T07:17:58;99087.63;;;-1.17;98.59
58239;BME280;44037;55.638;37.356;2022-12-29T07:20:25;99086.34;;;-1.09;98.43
58239;BME280;44037;55.638;37.356;2022-12-29T07:22:52;99088.41;;;-1.00;98.02
58239;BME280;44037;55.638;37.356;2022-12-29T07:25:20;99089.56;;;-0.94;97.56
58239;BME280;44037;55.638;37.356;2022-12-29T07:27:47;99093.28;;;-0.87;96.98
58239;BME280;44037;55.638;37.356;2022-12-29T07:30:14;99085.03;;;-0.81;96.78
58239;BME280;44037;55.638;37.356;2022-12-29T07:32:42;99091.38;;;-0.73;96.24
58239;BME280;44037;55.638;37.356;2022-12-29T07:35:09;99090.78;;;-0.67;96.05
58239;BME280;44037;55.638;37.356;2022-12-29T07:37:36;99088.50;;;-0.61;96.07
58239;BME280;44037;55.638;37.356;2022-12-29T07:40:04;99095.63;;;-0.54;95.61
58239;BME280;44037;55.638;37.356;2022-12-29T07:42:32;99092.53;;;-0.47;95.28
58239;BME280;44037;55.638;37.356;2022-12-29T07:44:59;99083.56;;;-0.38;95.09
58239;BME280;44037;55.638;37.356;2022-12-29T07:47:26;99087.78;;;-0.39;94.45
58239;BME280;44037;55.638;37.356;2022-12-29T07:49:55;99088.53;;;-0.41;93.69
58239;BME280;44037;55.638;37.356;2022-12-29T07:52:22;99095.22;;;-0.43;93.17
58239;BME280;44037;55.638;37.356;2022-12-29T07:54:49;99088.44;;;-0.43;93.09
58239;BME280;44037;55.638;37.356;2022-12-29T07:57:16;99094.63;;;-0.38;93.06
58239;BME280;44037;55.638;37.356;2022-12-29T07:59:43;99095.72;;;-0.33;93.17
58239;BME280;44037;55.638;37.356;2022-12-29T08:02:10;99095.09;;;-0.27;92.39
58239;BME280;44037;55.638;37.356;2022-12-29T08:04:37;99097.66;;;-0.27;92.47
58239;BME280;44037;55.638;37.356;2022-12-29T08:07:06;99103.75;;;-0.23;92.12
58239;BME280;44037;55.638;37.356;2022-12-29T08:09:33;99099.59;;;-0.21;91.77
58239;BME280;44037;55.638;37.356;2022-12-29T08:12:01;99104.78;;;-0.18;91.73
58239;BME280;44037;55.638;37.356;2022-12-29T08:14:28;99113.19;;;-0.21;91.12
58239;BME280;44037;55.638;37.356;2022-12-29T08:16:55;99114.66;;;-0.26;90.70
58239;BME280;44037;55.638;37.356;2022-12-29T08:19:22;99117.94;;;-0.28;90.32
58239;BME280;44037;55.638;37.356;2022-12-29T08:21:49;99124.38;;;-0.37;89.58
58239;BME280;44037;55.638;37.356;2022-12-29T08:24:18;99109.59;;;-0.44;89.63
58239;BME280;44037;55.638;37.356;2022-12-29T08:26:45;99111.34;;;-0.43;90.33
58239;BME280;44037;55.638;37.356;2022-12-29T08:29:12;99116.78;;;-0.35;90.54
58239;BME280;44037;55.638;37.356;2022-12-29T08:31:39;99107.88;;;-0.25;90.59
58239;BME280;44037;55.638;37.356;2022-12-29T08:34:06;99113.31;;;-0.18;90.66
58239;BME280;44037;55.638;37.356;2022-12-29T08:36:33;99102.59;;;-0.10;90.78
58239;BME280;44037;55.638;37.356;2022-12-29T08:39:00;99103.47;;;-0.10;90.17
58239;BME280;44037;55.638;37.356;2022-12-29T08:41:29;99101.78;;;-0.09;90.17
58239;BME280;44037;55.638;37.356;2022-12-29T08:43:56;99107.75;;;-0.09;90.00
58239;BME280;44037;55.638;37.356;2022-12-29T08:46:23;99112.06;;;-0.08;89.73
58239;BME280;44037;55.638;37.356;2022-12-29T08:48:50;99107.16;;;-0.03;89.76
58239;BME280;44037;55.638;37.356;2022-12-29T08:51:17;99110.75;;;0.02;89.60
58239;BME280;44037;55.638;37.356;2022-12-29T08:53:44;99109.28;;;0.07;89.33
58239;BME280;44037;55.638;37.356;2022-12-29T08:56:11;99114.50;;;0.10;89.44
58239;BME280;44037;55.638;37.356;2022-12-29T08:58:40;99107.91;;;0.15;89.31
58239;BME280;44037;55.638;37.356;2022-12-29T09:01:09;99103.94;;;0.22;88.47
58239;BME280;44037;55.638;37.356;2022-12-29T09:03:37;99106.19;;;0.36;88.53
58239;BME280;44037;55.638;37.356;2022-12-29T09:06:04;99097.94;;;0.41;87.77
58239;BME280;44037;55.638;37.356;2022-12-29T09:08:31;99102.09;;;0.39;87.98
58239;BME280;44037;55.638;37.356;2022-12-29T09:11:06;99107.19;;;0.39;87.86
58239;BME280;44037;55.638;37.356;2022-12-29T09:13:33;99097.09;;;0.41;87.37
58239;BME280;44037;55.638;37.356;2022-12-29T09:16:02;99101.78;;;0.32;87.43
58239;BME280;44037;55.638;37.356;2022-12-29T09:18:29;99107.44;;;0.24;87.34
58239;BME280;44037;55.638;37.356;2022-12-29T09:20:57;99101.88;;;0.13;87.22
58239;BME280;44037;55.638;37.356;2022-12-29T09:23:25;99104.78;;;0.02;86.65
58239;BME280;44037;55.638;37.356;2022-12-29T09:25:52;99110.22;;;-0.10;86.95
58239;BME280;44037;55.638;37.356;2022-12-29T09:28:19;99111.63;;;-0.17;87.49
58239;BME280;44037;55.638;37.356;2022-12-29T09:30:46;99113.97;;;-0.22;87.60
58239;BME280;44037;55.638;37.356;2022-12-29T09:33:16;99107.69;;;-0.30;87.50
58239;BME280;44037;55.638;37.356;2022-12-29T09:35:43;99107.41;;;-0.36;87.48
58239;BME280;44037;55.638;37.356;2022-12-29T09:38:11;99106.34;;;-0.41;88.04
58239;BME280;44037;55.638;37.356;2022-12-29T09:40:39;99108.81;;;-0.43;88.07
58239;BME280;44037;55.638;37.356;2022-12-29T09:43:26;99114.69;;;-0.44;87.41
58239;BME280;44037;55.638;37.356;2022-12-29T09:46:02;99114.44;;;-0.50;87.37
58239;BME280;44037;55.638;37.356;2022-12-29T09:48:37;99104.06;;;-0.55;87.45
58239;BME280;44037;55.638;37.356;2022-12-29T09:51:11;99103.16;;;-0.55;87.75
58239;BME280;44037;55.638;37.356;2022-12-29T09:53:41;99101.50;;;-0.55;87.80
58239;BME280;44037;55.638;37.356;2022-12-29T09:56:13;99099.16;;;-0.50;88.37
58239;BME280;44037;55.638;37.356;2022-12-29T09:58:46;99093.63;;;-0.41;88.89
58239;BME280;44037;55.638;37.356;2022-12-29T10:01:21;99095.81;;;-0.29;89.28
58239;BME280;44037;55.638;37.356;2022-12-29T10:03:55;99085.31;;;-0.18;89.29
58239;BME280;44037;55.638;37.356;2022-12-29T10:06:24;99092.66;;;-0.04;89.25
58239;BME280;44037;55.638;37.356;2022-12-29T10:08:59;99087.16;;;0.06;89.03
58239;BME280;44037;55.638;37.356;2022-12-29T10:11:43;99076.50;;;0.15;88.82
58239;BME280;44037;55.638;37.356;2022-12-29T10:14:25;99079.34;;;0.23;88.44
58239;BME280;44037;55.638;37.356;2022-12-29T10:17:01;99083.88;;;0.30;88.13
58239;BME280;44037;55.638;37.356;2022-12-29T10:19:48;99085.00;;;0.37;88.37
58239;BME280;44037;55.638;37.356;2022-12-29T10:22:29;99095.38;;;0.41;88.00
58239;BME280;44037;55.638;37.356;2022-12-29T10:25:00;99093.09;;;0.48;88.04
58239;BME280;44037;55.638;37.356;2022-12-29T10:27:31;99090.75;;;0.52;87.81
58239;BME280;44037;55.638;37.356;2022-12-29T10:30:01;99095.09;;;0.55;87.57
58239;BME280;44037;55.638;37.356;2022-12-29T10:32:34;99087.56;;;0.58;87.47
58239;BME280;44037;55.638;37.356;2022-12-29T10:35:09;99083.31;;;0.58;87.15
58239;BME280;44037;55.638;37.356;2022-12-29T10:37:42;99094.41;;;0.59;86.75
58239;BME280;44037;55.638;37.356;2022-12-29T10:40:18;99087.44;;;0.55;86.91
58239;BME280;44037;55.638;37.356;2022-12-29T10:42:49;99095.22;;;0.58;86.57
58239;BME280;44037;55.638;37.356;2022-12-29T10:45:18;99093.41;;;0.55;86.55
58239;BME280;44037;55.638;37.356;2022-12-29T10:47:52;99085.00;;;0.58;86.48
58239;BME280;44037;55.638;37.356;2022-12-29T10:50:22;99085.16;;;0.61;86.45
58239;BME280;44037;55.638;37.356;2022-12-29T10:52:51;99085.25;;;0.64;86.41
58239;BME280;44037;55.638;37.356;2022-12-29T10:55:22;99087.00;;;0.65;85.75
58239;BME280;44037;55.638;37.356;2022-12-29T10:57:54;99072.50;;;0.64;85.96
58239;BME280;44037;55.638;37.356;2022-12-29T11:00:23;99074.19;;;0.64;85.92
58239;BME280;44037;55.638;37.356;2022-12-29T11:05:51;99070.88;;;0.66;86.15
58239;BME280;44037;55.638;37.356;2022-12-29T11:08:22;99070.97;;;0.68;85.86
58239;BME280;44037;55.638;37.356;2022-12-29T11:10:58;99067.53;;;0.67;85.77
58239;BME280;44037;55.638;37.356;2022-12-29T11:13:28;99063.41;;;0.71;85.75
58239;BME280;44037;55.638;37.356;2022-12-29T11:15:55;99060.81;;;0.69;86.04
58239;BME280;44037;55.638;37.356;2022-12-29T11:18:24;99060.00;;;0.70;85.87
58239;BME280;44037;55.638;37.356;2022-12-29T11:20:54;99056.53;;;0.68;85.32
58239;BME280;44037;55.638;37.356;2022-12-29T11:23:29;99063.94;;;0.62;85.31
58239;BME280;44037;55.638;37.356;2022-12-29T11:26:14;99061.94;;;0.55;85.73
58239;BME280;44037;55.638;37.356;2022-12-29T11:28:43;99066.09;;;0.53;86.07
58239;BME280;44037;55.638;37.356;2022-12-29T11:31:10;99070.25;;;0.51;86.27
58239;BME280;44037;55.638;37.356;2022-12-29T11:33:41;99067.66;;;0.49;86.35
58239;BME280;44037;55.638;37.356;2022-12-29T11:36:14;99063.44;;;0.50;87.01
58239;BME280;44037;55.638;37.356;2022-12-29T11:38:46;99062.56;;;0.49;86.73
58239;BME280;44037;55.638;37.356;2022-12-29T11:41:20;99066.72;;;0.47;86.94
58239;BME280;44037;55.638;37.356;2022-12-29T11:43:48;99078.47;;;0.43;87.03
58239;BME280;44037;55.638;37.356;2022-12-29T11:46:18;99077.50;;;0.40;87.69
58239;BME280;44037;55.638;37.356;2022-12-29T11:48:47;99082.50;;;0.38;87.73
58239;BME280;44037;55.638;37.356;2022-12-29T11:51:23;99079.97;;;0.38;87.74
58239;BME280;44037;55.638;37.356;2022-12-29T11:53:55;99073.97;;;0.36;88.22
58239;BME280;44037;55.638;37.356;2022-12-29T11:56:33;99077.22;;;0.34;88.44
58239;BME280;44037;55.638;37.356;2022-12-29T11:59:36;99083.88;;;0.30;88.73
58239;BME280;44037;55.638;37.356;2022-12-29T12:02:19;99082.94;;;0.28;89.10
58239;BME280;44037;55.638;37.356;2022-12-29T12:04:51;99088.84;;;0.27;89.18
58239;BME280;44037;55.638;37.356;2022-12-29T12:07:28;99095.63;;;0.26;89.57
58239;BME280;44037;55.638;37.356;2022-12-29T12:10:01;99092.00;;;0.21;89.69
58239;BME280;44037;55.638;37.356;2022-12-29T12:12:34;99097.88;;;0.19;89.87
58239;BME280;44037;55.638;37.356;2022-12-29T12:15:03;99094.47;;;0.18;89.95
58239;BME280;44037;55.638;37.356;2022-12-29T12:17:36;99089.41;;;0.20;90.28
58239;BME280;44037;55.638;37.356;2022-12-29T12:20:16;99088.53;;;0.19;90.64
58239;BME280;44037;55.638;37.356;2022-12-29T12:22:54;99085.13;;;0.19;90.68
58239;BME280;44037;55.638;37.356;2022-12-29T12:25:29;99079.97;;;0.17;90.79
58239;BME280;44037;55.638;37.356;2022-12-29T12:28:08;99084.25;;;0.18;91.18
58239;BME280;44037;55.638;37.356;2022-12-29T12:30:40;99092.72;;;0.17;91.67
58239;BME280;44037;55.638;37.356;2022-12-29T12:33:16;99092.72;;;0.17;91.56
58239;BME280;44037;55.638;37.356;2022-12-29T12:36:04;99079.88;;;0.15;91.76
58239;BME280;44037;55.638;37.356;2022-12-29T12:38:43;99090.88;;;0.14;91.78
58239;BME280;44037;55.638;37.356;2022-12-29T12:41:19;99085.75;;;0.13;92.20
58239;BME280;44037;55.638;37.356;2022-12-29T12:43:51;99089.09;;;0.12;92.20
58239;BME280;44037;55.638;37.356;2022-12-29T12:50:00;99099.09;;;0.07;92.36
58239;BME280;44037;55.638;37.356;2022-12-29T12:52:35;99080.31;;;0.05;92.42
58239;BME280;44037;55.638;37.356;2022-12-29T12:55:23;99081.13;;;0.04;92.64
58239;BME280;44037;55.638;37.356;2022-12-29T12:58:01;99075.97;;;0.03;92.52
58239;BME280;44037;55.638;37.356;2022-12-29T13:00:31;99069.94;;;0.01;93.33
58239;BME280;44037;55.638;37.356;2022-12-29T13:03:07;99081.72;;;-0.02;92.80
58239;BME280;44037;55.638;37.356;2022-12-29T13:06:00;99083.28;;;-0.05;93.08
58239;BME280;44037;55.638;37.356;2022-12-29T13:08:47;99088.25;;;-0.08;92.95
58239;BME280;44037;55.638;37.356;2022-12-29T13:11:25;99088.09;;;-0.11;93.15
58239;BME280;44037;55.638;37.356;2022-12-29T13:14:09;99093.88;;;-0.16;93.46
58239;BME280;44037;55.638;37.356;2022-12-29T13:16:45;99093.09;;;-0.14;93.71
58239;BME280;44037;55.638;37.356;2022-12-29T13:19:17;99088.72;;;-0.17;94.06
58239;BME280;44037;55.638;37.356;2022-12-29T13:21:55;99093.09;;;-0.14;94.33